sensor_id;sensor_type;location;lat;lon;timestamp;temperature;humidity
6672;DHT22;3372;48.690;12.362;2023-05-07T00:00:21;14.10;39.30
6672;DHT22;3372;48.690;12.362;2023-05-07T00:02:47;14.10;39.60
6672;DHT22;3372;48.690;12.362;2023-05-07T00:05:12;14.00;39.10
6672;DHT22;3372;48.690;12.362;2023-05-07T00:07:38;14.00;39.30
6672;DHT22;3372;48.690;12.362;2023-05-07T00:10:04;13.90;39.70
6672;DHT22;3372;48.690;12.362;2023-05-07T00:12:32;13.80;40.00
6672;DHT22;3372;48.690;12.362;2023-05-07T00:15:01;13.80;39.80
6672;DHT22;3372;48.690;12.362;2023-05-07T00:17:27;13.80;40.70
6672;DHT22;3372;48.690;12.362;2023-05-07T00:19:53;13.80;40.30
6672;DHT22;3372;48.690;12.362;2023-05-07T00:22:18;13.80;39.80
6672;DHT22;3372;48.690;12.362;2023-05-07T00:24:44;13.80;40.20
6672;DHT22;3372;48.690;12.362;2023-05-07T00:27:09;13.80;41.00
6672;DHT22;3372;48.690;12.362;2023-05-07T00:29:35;13.70;40.30
6672;DHT22;3372;48.690;12.362;2023-05-07T00:32:01;13.70;40.50
6672;DHT22;3372;48.690;12.362;2023-05-07T00:34:27;13.60;40.30
6672;DHT22;3372;48.690;12.362;2023-05-07T00:36:53;13.60;39.90
6672;DHT22;3372;48.690;12.362;2023-05-07T00:39:18;13.60;40.20
6672;DHT22;3372;48.690;12.362;2023-05-07T00:41:44;13.60;40.10
6672;DHT22;3372;48.690;12.362;2023-05-07T00:44:10;13.50;40.60
6672;DHT22;3372;48.690;12.362;2023-05-07T00:46:36;13.50;40.70
6672;DHT22;3372;48.690;12.362;2023-05-07T00:49:01;13.50;40.80
6672;DHT22;3372;48.690;12.362;2023-05-07T00:51:28;13.50;40.80
6672;DHT22;3372;48.690;12.362;2023-05-07T00:53:54;13.50;41.20
6672;DHT22;3372;48.690;12.362;2023-05-07T00:56:23;13.50;40.50
6672;DHT22;3372;48.690;12.362;2023-05-07T00:58:49;13.50;41.20
6672;DHT22;3372;48.690;12.362;2023-05-07T01:01:15;13.40;41.30
6672;DHT22;3372;48.690;12.362;2023-05-07T01:03:42;13.40;41.30
6672;DHT22;3372;48.690;12.362;2023-05-07T01:06:08;13.40;40.90
6672;DHT22;3372;48.690;12.362;2023-05-07T01:08:35;13.50;40.70
6672;DHT22;3372;48.690;12.362;2023-05-07T01:11:01;13.40;40.50
6672;DHT22;3372;48.690;12.362;2023-05-07T01:13:28;13.40;40.50
6672;DHT22;3372;48.690;12.362;2023-05-07T01:15:54;13.40;40.70
6672;DHT22;3372;48.690;12.362;2023-05-07T01:18:19;13.40;40.50
6672;DHT22;3372;48.690;12.362;2023-05-07T01:20:45;13.40;40.30
6672;DHT22;3372;48.690;12.362;2023-05-07T01:23:11;13.40;40.50
6672;DHT22;3372;48.690;12.362;2023-05-07T01:25:37;13.30;41.30
6672;DHT22;3372;48.690;12.362;2023-05-07T01:28:03;13.30;41.50
6672;DHT22;3372;48.690;12.362;2023-05-07T01:30:29;13.30;41.30
6672;DHT22;3372;48.690;12.362;2023-05-07T01:33:09;13.30;41.30
6672;DHT22;3372;48.690;12.362;2023-05-07T01:35:38;13.30;42.40
6672;DHT22;3372;48.690;12.362;2023-05-07T01:38:05;13.20;41.60
6672;DHT22;3372;48.690;12.362;2023-05-07T01:40:32;13.20;41.40
6672;DHT22;3372;48.690;12.362;2023-05-07T01:43:00;13.20;41.90
6672;DHT22;3372;48.690;12.362;2023-05-07T01:45:26;13.20;41.20
6672;DHT22;3372;48.690;12.362;2023-05-07T01:47:53;13.20;41.80
6672;DHT22;3372;48.690;12.362;2023-05-07T01:50:19;13.20;41.90
6672;DHT22;3372;48.690;12.362;2023-05-07T01:52:46;13.10;42.20
6672;DHT22;3372;48.690;12.362;2023-05-07T01:55:12;13.10;43.00
6672;DHT22;3372;48.690;12.362;2023-05-07T01:57:38;13.10;42.90
6672;DHT22;3372;48.690;12.362;2023-05-07T02:00:04;13.10;42.70
6672;DHT22;3372;48.690;12.362;2023-05-07T02:02:30;13.10;42.50
6672;DHT22;3372;48.690;12.362;2023-05-07T02:04:56;13.20;42.40
6672;DHT22;3372;48.690;12.362;2023-05-07T02:07:22;13.20;42.40
6672;DHT22;3372;48.690;12.362;2023-05-07T02:09:47;13.10;42.50
6672;DHT22;3372;48.690;12.362;2023-05-07T02:12:13;13.10;42.90
6672;DHT22;3372;48.690;12.362;2023-05-07T02:14:38;13.10;43.00
6672;DHT22;3372;48.690;12.362;2023-05-07T02:17:04;13.10;42.70
6672;DHT22;3372;48.690;12.362;2023-05-07T02:19:30;13.10;42.50
6672;DHT22;3372;48.690;12.362;2023-05-07T02:21:55;13.10;42.60
6672;DHT22;3372;48.690;12.362;2023-05-07T02:24:21;13.00;42.90
6672;DHT22;3372;48.690;12.362;2023-05-07T02:26:47;13.00;42.70
6672;DHT22;3372;48.690;12.362;2023-05-07T02:29:12;13.00;43.00
6672;DHT22;3372;48.690;12.362;2023-05-07T02:31:38;13.00;43.00
6672;DHT22;3372;48.690;12.362;2023-05-07T02:34:03;13.00;42.50
6672;DHT22;3372;48.690;12.362;2023-05-07T02:36:29;13.00;42.70
6672;DHT22;3372;48.690;12.362;2023-05-07T02:38:55;13.00;43.10
6672;DHT22;3372;48.690;12.362;2023-05-07T02:41:20;13.00;42.80
6672;DHT22;3372;48.690;12.362;2023-05-07T02:43:46;13.00;43.00
6672;DHT22;3372;48.690;12.362;2023-05-07T02:46:12;13.00;42.70
6672;DHT22;3372;48.690;12.362;2023-05-07T02:48:37;12.90;42.20
6672;DHT22;3372;48.690;12.362;2023-05-07T02:51:03;12.90;42.60
6672;DHT22;3372;48.690;12.362;2023-05-07T02:53:29;12.90;42.60
6672;DHT22;3372;48.690;12.362;2023-05-07T02:55:59;12.80;42.80
6672;DHT22;3372;48.690;12.362;2023-05-07T02:58:25;12.80;43.50
6672;DHT22;3372;48.690;12.362;2023-05-07T03:00:52;12.90;43.20
6672;DHT22;3372;48.690;12.362;2023-05-07T03:03:17;12.80;43.40
6672;DHT22;3372;48.690;12.362;2023-05-07T03:05:43;12.80;43.40
6672;DHT22;3372;48.690;12.362;2023-05-07T03:08:09;12.80;43.90
6672;DHT22;3372;48.690;12.362;2023-05-07T03:10:36;12.80;43.70
6672;DHT22;3372;48.690;12.362;2023-05-07T03:13:01;12.80;43.70
6672;DHT22;3372;48.690;12.362;2023-05-07T03:15:27;12.80;43.80
6672;DHT22;3372;48.690;12.362;2023-05-07T03:17:53;12.80;43.90
6672;DHT22;3372;48.690;12.362;2023-05-07T03:20:18;12.80;44.10
6672;DHT22;3372;48.690;12.362;2023-05-07T03:22:44;12.80;44.80
6672;DHT22;3372;48.690;12.362;2023-05-07T03:25:10;12.70;45.60
6672;DHT22;3372;48.690;12.362;2023-05-07T03:27:36;12.70;44.90
6672;DHT22;3372;48.690;12.362;2023-05-07T03:30:02;12.70;44.30
6672;DHT22;3372;48.690;12.362;2023-05-07T03:32:27;12.70;44.50
6672;DHT22;3372;48.690;12.362;2023-05-07T03:34:53;12.70;44.40
6672;DHT22;3372;48.690;12.362;2023-05-07T03:37:19;12.70;44.20
6672;DHT22;3372;48.690;12.362;2023-05-07T03:39:44;12.70;44.50
6672;DHT22;3372;48.690;12.362;2023-05-07T03:42:10;12.70;44.40
6672;DHT22;3372;48.690;12.362;2023-05-07T03:44:36;12.70;44.30
6672;DHT22;3372;48.690;12.362;2023-05-07T03:47:02;12.70;44.70
6672;DHT22;3372;48.690;12.362;2023-05-07T03:49:28;12.70;44.80
6672;DHT22;3372;48.690;12.362;2023-05-07T03:51:54;12.70;44.60
6672;DHT22;3372;48.690;12.362;2023-05-07T03:54:19;12.80;45.10
6672;DHT22;3372;48.690;12.362;2023-05-07T03:56:45;12.70;44.50
6672;DHT22;3372;48.690;12.362;2023-05-07T03:59:11;12.70;44.30
6672;DHT22;3372;48.690;12.362;2023-05-07T04:01:37;12.70;45.00
6672;DHT22;3372;48.690;12.362;2023-05-07T04:04:02;12.70;45.30
6672;DHT22;3372;48.690;12.362;2023-05-07T04:06:29;12.70;45.30
6672;DHT22;3372;48.690;12.362;2023-05-07T04:08:55;12.70;45.30
6672;DHT22;3372;48.690;12.362;2023-05-07T04:11:20;12.60;45.80
6672;DHT22;3372;48.690;12.362;2023-05-07T04:13:46;12.60;46.30
6672;DHT22;3372;48.690;12.362;2023-05-07T04:16:12;12.70;45.30
6672;DHT22;3372;48.690;12.362;2023-05-07T04:18:37;12.70;46.40
6672;DHT22;3372;48.690;12.362;2023-05-07T04:21:03;12.70;45.60
6672;DHT22;3372;48.690;12.362;2023-05-07T04:23:28;12.70;46.60
6672;DHT22;3372;48.690;12.362;2023-05-07T04:25:54;12.80;46.70
6672;DHT22;3372;48.690;12.362;2023-05-07T04:28:20;12.70;46.30
6672;DHT22;3372;48.690;12.362;2023-05-07T04:30:46;12.80;46.90
6672;DHT22;3372;48.690;12.362;2023-05-07T04:33:11;12.80;46.60
6672;DHT22;3372;48.690;12.362;2023-05-07T04:35:37;12.80;46.40
6672;DHT22;3372;48.690;12.362;2023-05-07T04:38:03;12.90;46.00
6672;DHT22;3372;48.690;12.362;2023-05-07T04:40:28;12.90;47.30
6672;DHT22;3372;48.690;12.362;2023-05-07T04:42:54;12.90;46.80
6672;DHT22;3372;48.690;12.362;2023-05-07T04:45:20;12.90;46.50
6672;DHT22;3372;48.690;12.362;2023-05-07T04:47:45;13.10;47.40
6672;DHT22;3372;48.690;12.362;2023-05-07T04:50:11;13.40;46.70
6672;DHT22;3372;48.690;12.362;2023-05-07T04:52:37;13.70;46.50
6672;DHT22;3372;48.690;12.362;2023-05-07T04:55:03;14.10;45.50
6672;DHT22;3372;48.690;12.362;2023-05-07T04:57:28;14.30;44.80
6672;DHT22;3372;48.690;12.362;2023-05-07T04:59:54;14.40;43.90
6672;DHT22;3372;48.690;12.362;2023-05-07T05:02:19;14.50;43.70
6672;DHT22;3372;48.690;12.362;2023-05-07T05:04:45;14.60;43.20
6672;DHT22;3372;48.690;12.362;2023-05-07T05:07:11;14.40;43.80
6672;DHT22;3372;48.690;12.362;2023-05-07T05:09:37;14.40;44.30
6672;DHT22;3372;48.690;12.362;2023-05-07T05:12:02;14.40;44.60
6672;DHT22;3372;48.690;12.362;2023-05-07T05:14:28;14.50;44.60
6672;DHT22;3372;48.690;12.362;2023-05-07T05:16:54;14.80;45.90
6672;DHT22;3372;48.690;12.362;2023-05-07T05:19:20;15.00;45.60
6672;DHT22;3372;48.690;12.362;2023-05-07T05:21:45;15.50;44.60
6672;DHT22;3372;48.690;12.362;2023-05-07T05:24:11;15.50;43.30
6672;DHT22;3372;48.690;12.362;2023-05-07T05:26:37;15.50;43.50
6672;DHT22;3372;48.690;12.362;2023-05-07T05:29:02;15.40;45.00
6672;DHT22;3372;48.690;12.362;2023-05-07T05:31:28;15.50;45.20
6672;DHT22;3372;48.690;12.362;2023-05-07T05:33:53;15.70;44.50
6672;DHT22;3372;48.690;12.362;2023-05-07T05:36:19;15.90;45.00
6672;DHT22;3372;48.690;12.362;2023-05-07T05:38:45;16.20;43.80
6672;DHT22;3372;48.690;12.362;2023-05-07T05:41:10;16.50;44.30
6672;DHT22;3372;48.690;12.362;2023-05-07T05:43:36;16.80;42.10
6672;DHT22;3372;48.690;12.362;2023-05-07T05:46:02;16.70;42.00
6672;DHT22;3372;48.690;12.362;2023-05-07T05:48:29;16.70;44.40
6672;DHT22;3372;48.690;12.362;2023-05-07T05:50:55;16.50;44.40
6672;DHT22;3372;48.690;12.362;2023-05-07T05:53:20;17.10;44.60
6672;DHT22;3372;48.690;12.362;2023-05-07T05:55:46;17.60;44.60
6672;DHT22;3372;48.690;12.362;2023-05-07T05:58:12;17.90;41.90
6672;DHT22;3372;48.690;12.362;2023-05-07T06:00:37;17.90;40.70
6672;DHT22;3372;48.690;12.362;2023-05-07T06:03:03;18.20;41.10
6672;DHT22;3372;48.690;12.362;2023-05-07T06:05:29;18.70;40.50
6672;DHT22;3372;48.690;12.362;2023-05-07T06:07:54;19.10;39.50
6672;DHT22;3372;48.690;12.362;2023-05-07T06:10:20;19.40;40.00
6672;DHT22;3372;48.690;12.362;2023-05-07T06:12:45;19.50;37.90
6672;DHT22;3372;48.690;12.362;2023-05-07T06:15:11;20.00;35.30
6672;DHT22;3372;48.690;12.362;2023-05-07T06:17:37;20.00;35.80
6672;DHT22;3372;48.690;12.362;2023-05-07T06:20:03;20.20;33.00
6672;DHT22;3372;48.690;12.362;2023-05-07T06:22:29;20.60;32.00
6672;DHT22;3372;48.690;12.362;2023-05-07T06:24:54;20.80;31.30
6672;DHT22;3372;48.690;12.362;2023-05-07T06:27:20;21.20;30.40
6672;DHT22;3372;48.690;12.362;2023-05-07T06:29:48;21.20;29.80
6672;DHT22;3372;48.690;12.362;2023-05-07T06:32:14;21.30;29.20
6672;DHT22;3372;48.690;12.362;2023-05-07T06:34:40;21.60;28.40
6672;DHT22;3372;48.690;12.362;2023-05-07T06:37:07;21.70;27.20
6672;DHT22;3372;48.690;12.362;2023-05-07T06:39:32;21.70;26.60
6672;DHT22;3372;48.690;12.362;2023-05-07T06:42:00;21.80;26.70
6672;DHT22;3372;48.690;12.362;2023-05-07T06:44:26;21.60;27.60
6672;DHT22;3372;48.690;12.362;2023-05-07T06:46:51;21.90;27.40
6672;DHT22;3372;48.690;12.362;2023-05-07T06:49:17;21.90;26.40
6672;DHT22;3372;48.690;12.362;2023-05-07T06:51:42;21.90;25.50
6672;DHT22;3372;48.690;12.362;2023-05-07T06:54:08;22.30;26.10
6672;DHT22;3372;48.690;12.362;2023-05-07T06:56:34;22.30;25.90
6672;DHT22;3372;48.690;12.362;2023-05-07T06:59:00;22.40;25.30
6672;DHT22;3372;48.690;12.362;2023-05-07T07:01:26;22.60;25.00
6672;DHT22;3372;48.690;12.362;2023-05-07T07:03:52;22.70;25.00
6672;DHT22;3372;48.690;12.362;2023-05-07T07:06:17;22.70;23.70
6672;DHT22;3372;48.690;12.362;2023-05-07T07:08:43;22.70;22.80
6672;DHT22;3372;48.690;12.362;2023-05-07T07:11:10;22.50;22.10
6672;DHT22;3372;48.690;12.362;2023-05-07T07:13:35;22.40;23.20
6672;DHT22;3372;48.690;12.362;2023-05-07T07:16:01;22.60;24.30
6672;DHT22;3372;48.690;12.362;2023-05-07T07:18:27;22.80;25.30
6672;DHT22;3372;48.690;12.362;2023-05-07T07:20:53;23.00;24.10
6672;DHT22;3372;48.690;12.362;2023-05-07T07:23:18;23.10;23.30
6672;DHT22;3372;48.690;12.362;2023-05-07T07:25:44;22.90;23.40
6672;DHT22;3372;48.690;12.362;2023-05-07T07:28:10;23.20;24.10
6672;DHT22;3372;48.690;12.362;2023-05-07T07:30:37;23.50;22.60
6672;DHT22;3372;48.690;12.362;2023-05-07T07:33:02;23.60;21.70
6672;DHT22;3372;48.690;12.362;2023-05-07T07:35:29;23.10;22.30
6672;DHT22;3372;48.690;12.362;2023-05-07T07:37:55;22.80;22.60
6672;DHT22;3372;48.690;12.362;2023-05-07T07:40:21;22.60;22.40
6672;DHT22;3372;48.690;12.362;2023-05-07T07:42:47;22.90;22.30
6672;DHT22;3372;48.690;12.362;2023-05-07T07:45:12;23.10;21.90
6672;DHT22;3372;48.690;12.362;2023-05-07T07:47:41;23.20;24.10
6672;DHT22;3372;48.690;12.362;2023-05-07T07:50:07;23.40;21.90
6672;DHT22;3372;48.690;12.362;2023-05-07T07:52:33;23.40;22.30
6672;DHT22;3372;48.690;12.362;2023-05-07T07:54:59;23.60;23.60
6672;DHT22;3372;48.690;12.362;2023-05-07T07:57:24;23.50;23.00
6672;DHT22;3372;48.690;12.362;2023-05-07T07:59:50;23.50;22.40
6672;DHT22;3372;48.690;12.362;2023-05-07T08:02:16;23.80;23.30
6672;DHT22;3372;48.690;12.362;2023-05-07T08:04:42;23.80;21.70
6672;DHT22;3372;48.690;12.362;2023-05-07T08:07:09;23.70;21.40
6672;DHT22;3372;48.690;12.362;2023-05-07T08:09:36;23.60;19.90
6672;DHT22;3372;48.690;12.362;2023-05-07T08:12:02;23.50;20.90
6672;DHT22;3372;48.690;12.362;2023-05-07T08:14:28;23.40;21.10
6672;DHT22;3372;48.690;12.362;2023-05-07T08:16:54;23.20;21.80
6672;DHT22;3372;48.690;12.362;2023-05-07T08:19:20;23.10;22.50
6672;DHT22;3372;48.690;12.362;2023-05-07T08:21:45;23.10;22.80
6672;DHT22;3372;48.690;12.362;2023-05-07T08:24:15;23.50;24.60
6672;DHT22;3372;48.690;12.362;2023-05-07T08:26:41;23.50;22.10
6672;DHT22;3372;48.690;12.362;2023-05-07T08:29:07;23.60;21.70
6672;DHT22;3372;48.690;12.362;2023-05-07T08:31:33;23.50;22.10
6672;DHT22;3372;48.690;12.362;2023-05-07T08:33:59;23.60;23.10
6672;DHT22;3372;48.690;12.362;2023-05-07T08:36:26;23.70;21.30
6672;DHT22;3372;48.690;12.362;2023-05-07T08:38:52;23.90;21.20
6672;DHT22;3372;48.690;12.362;2023-05-07T08:41:19;24.00;21.10
6672;DHT22;3372;48.690;12.362;2023-05-07T08:43:48;23.70;20.60
6672;DHT22;3372;48.690;12.362;2023-05-07T08:46:18;23.70;21.70
6672;DHT22;3372;48.690;12.362;2023-05-07T08:48:44;23.80;21.60
6672;DHT22;3372;48.690;12.362;2023-05-07T08:51:18;23.70;20.60
6672;DHT22;3372;48.690;12.362;2023-05-07T08:53:44;23.80;21.60
6672;DHT22;3372;48.690;12.362;2023-05-07T08:56:10;23.70;23.20
6672;DHT22;3372;48.690;12.362;2023-05-07T08:58:36;23.80;22.20
6672;DHT22;3372;48.690;12.362;2023-05-07T09:01:10;23.60;23.90
6672;DHT22;3372;48.690;12.362;2023-05-07T09:03:38;23.50;22.50
6672;DHT22;3372;48.690;12.362;2023-05-07T09:06:04;23.30;23.90
6672;DHT22;3372;48.690;12.362;2023-05-07T09:08:33;23.20;22.20
6672;DHT22;3372;48.690;12.362;2023-05-07T09:10:59;23.10;23.40
6672;DHT22;3372;48.690;12.362;2023-05-07T09:13:24;23.10;23.70
6672;DHT22;3372;48.690;12.362;2023-05-07T09:15:50;23.00;23.70
6672;DHT22;3372;48.690;12.362;2023-05-07T09:18:16;23.10;25.00
6672;DHT22;3372;48.690;12.362;2023-05-07T09:20:41;23.50;23.80
6672;DHT22;3372;48.690;12.362;2023-05-07T09:23:07;23.60;21.40
6672;DHT22;3372;48.690;12.362;2023-05-07T09:25:34;23.50;20.80
6672;DHT22;3372;48.690;12.362;2023-05-07T09:28:01;23.30;20.40
6672;DHT22;3372;48.690;12.362;2023-05-07T09:30:32;23.20;21.60
6672;DHT22;3372;48.690;12.362;2023-05-07T09:32:59;23.00;22.70
6672;DHT22;3372;48.690;12.362;2023-05-07T09:35:26;23.60;23.80
6672;DHT22;3372;48.690;12.362;2023-05-07T09:37:59;23.90;24.10
6672;DHT22;3372;48.690;12.362;2023-05-07T09:40:27;24.10;22.50
6672;DHT22;3372;48.690;12.362;2023-05-07T09:42:53;24.40;23.10
6672;DHT22;3372;48.690;12.362;2023-05-07T09:45:26;24.50;20.60
6672;DHT22;3372;48.690;12.362;2023-05-07T09:47:57;24.40;20.40
6672;DHT22;3372;48.690;12.362;2023-05-07T09:50:35;24.40;18.90
6672;DHT22;3372;48.690;12.362;2023-05-07T09:53:03;24.40;20.00
6672;DHT22;3372;48.690;12.362;2023-05-07T09:55:29;24.70;21.90
6672;DHT22;3372;48.690;12.362;2023-05-07T09:57:55;24.60;22.80
6672;DHT22;3372;48.690;12.362;2023-05-07T10:00:23;24.70;20.70
6672;DHT22;3372;48.690;12.362;2023-05-07T10:02:50;24.20;21.00
6672;DHT22;3372;48.690;12.362;2023-05-07T10:05:18;23.60;21.10
6672;DHT22;3372;48.690;12.362;2023-05-07T10:07:46;23.20;22.80
6672;DHT22;3372;48.690;12.362;2023-05-07T10:10:12;23.20;22.30
6672;DHT22;3372;48.690;12.362;2023-05-07T10:12:38;23.20;22.90
6672;DHT22;3372;48.690;12.362;2023-05-07T10:17:40;22.80;22.60
6672;DHT22;3372;48.690;12.362;2023-05-07T10:20:07;23.00;22.80
6672;DHT22;3372;48.690;12.362;2023-05-07T10:22:44;22.90;22.60
6672;DHT22;3372;48.690;12.362;2023-05-07T10:33:15;22.80;21.10
6672;DHT22;3372;48.690;12.362;2023-05-07T10:40:52;22.60;20.80
6672;DHT22;3372;48.690;12.362;2023-05-07T10:43:18;23.10;21.60
6672;DHT22;3372;48.690;12.362;2023-05-07T10:51:24;23.00;20.00
6672;DHT22;3372;48.690;12.362;2023-05-07T10:56:42;23.00;18.70
6672;DHT22;3372;48.690;12.362;2023-05-07T11:01:55;23.50;19.00
6672;DHT22;3372;48.690;12.362;2023-05-07T11:04:21;23.40;18.10
6672;DHT22;3372;48.690;12.362;2023-05-07T11:53:53;23.30;18.50
6672;DHT22;3372;48.690;12.362;2023-05-07T11:56:19;23.40;18.70
6672;DHT22;3372;48.690;12.362;2023-05-07T11:58:46;23.60;18.50
6672;DHT22;3372;48.690;12.362;2023-05-07T12:01:13;23.50;17.50
6672;DHT22;3372;48.690;12.362;2023-05-07T12:03:43;23.40;17.10
6672;DHT22;3372;48.690;12.362;2023-05-07T12:06:12;23.30;16.60
6672;DHT22;3372;48.690;12.362;2023-05-07T12:08:39;23.30;17.70
6672;DHT22;3372;48.690;12.362;2023-05-07T12:11:08;23.10;17.30
6672;DHT22;3372;48.690;12.362;2023-05-07T12:13:35;23.20;18.00
6672;DHT22;3372;48.690;12.362;2023-05-07T12:16:01;23.20;18.00
6672;DHT22;3372;48.690;12.362;2023-05-07T12:18:28;23.30;17.90
6672;DHT22;3372;48.690;12.362;2023-05-07T12:20:55;23.40;17.70
6672;DHT22;3372;48.690;12.362;2023-05-07T12:23:22;23.60;17.20
6672;DHT22;3372;48.690;12.362;2023-05-07T12:25:48;23.60;17.30
6672;DHT22;3372;48.690;12.362;2023-05-07T12:28:18;23.60;17.50
6672;DHT22;3372;48.690;12.362;2023-05-07T12:30:46;23.60;17.40
6672;DHT22;3372;48.690;12.362;2023-05-07T12:33:23;23.50;16.20
6672;DHT22;3372;48.690;12.362;2023-05-07T12:35:49;23.40;17.40
6672;DHT22;3372;48.690;12.362;2023-05-07T12:38:17;23.30;16.50
6672;DHT22;3372;48.690;12.362;2023-05-07T12:40:48;23.50;16.30
6672;DHT22;3372;48.690;12.362;2023-05-07T12:43:27;23.30;14.70
6672;DHT22;3372;48.690;12.362;2023-05-07T12:45:55;23.20;16.00
6672;DHT22;3372;48.690;12.362;2023-05-07T12:48:21;23.30;14.80
6672;DHT22;3372;48.690;12.362;2023-05-07T12:50:50;23.40;16.10
6672;DHT22;3372;48.690;12.362;2023-05-07T12:53:17;23.50;15.80
6672;DHT22;3372;48.690;12.362;2023-05-07T12:55:47;23.50;16.20
6672;DHT22;3372;48.690;12.362;2023-05-07T12:58:20;23.30;14.40
6672;DHT22;3372;48.690;12.362;2023-05-07T13:00:48;23.30;15.10
6672;DHT22;3372;48.690;12.362;2023-05-07T13:03:28;23.50;16.50
6672;DHT22;3372;48.690;12.362;2023-05-07T13:05:57;23.60;15.60
6672;DHT22;3372;48.690;12.362;2023-05-07T13:10:53;23.70;16.30
6672;DHT22;3372;48.690;12.362;2023-05-07T13:13:19;23.80;16.10
6672;DHT22;3372;48.690;12.362;2023-05-07T13:15:46;23.90;13.50
6672;DHT22;3372;48.690;12.362;2023-05-07T13:18:11;24.00;14.30
6672;DHT22;3372;48.690;12.362;2023-05-07T13:20:37;23.80;13.20
6672;DHT22;3372;48.690;12.362;2023-05-07T13:23:03;23.90;14.00
6672;DHT22;3372;48.690;12.362;2023-05-07T13:25:30;23.90;15.20
6672;DHT22;3372;48.690;12.362;2023-05-07T13:27:56;24.00;15.00
6672;DHT22;3372;48.690;12.362;2023-05-07T13:30:22;23.90;14.20
6672;DHT22;3372;48.690;12.362;2023-05-07T13:32:48;24.10;14.60
6672;DHT22;3372;48.690;12.362;2023-05-07T13:35:14;24.20;16.00
6672;DHT22;3372;48.690;12.362;2023-05-07T13:37:40;24.00;13.70
6672;DHT22;3372;48.690;12.362;2023-05-07T13:40:06;24.00;15.50
6672;DHT22;3372;48.690;12.362;2023-05-07T13:42:31;24.10;15.00
6672;DHT22;3372;48.690;12.362;2023-05-07T13:44:57;23.80;13.70
6672;DHT22;3372;48.690;12.362;2023-05-07T13:47:23;23.80;14.90
6672;DHT22;3372;48.690;12.362;2023-05-07T13:49:48;23.90;15.40
6672;DHT22;3372;48.690;12.362;2023-05-07T13:52:16;24.00;15.10
6672;DHT22;3372;48.690;12.362;2023-05-07T13:54:42;23.90;13.80
6672;DHT22;3372;48.690;12.362;2023-05-07T13:57:07;23.90;15.10
6672;DHT22;3372;48.690;12.362;2023-05-07T13:59:33;23.80;15.10
6672;DHT22;3372;48.690;12.362;2023-05-07T14:01:59;23.80;15.60
6672;DHT22;3372;48.690;12.362;2023-05-07T14:04:25;23.90;15.50
6672;DHT22;3372;48.690;12.362;2023-05-07T14:06:50;24.00;15.40
6672;DHT22;3372;48.690;12.362;2023-05-07T14:09:16;24.10;16.10
6672;DHT22;3372;48.690;12.362;2023-05-07T14:11:42;24.10;15.90
6672;DHT22;3372;48.690;12.362;2023-05-07T14:14:08;24.00;16.10
6672;DHT22;3372;48.690;12.362;2023-05-07T14:16:36;24.10;17.20
6672;DHT22;3372;48.690;12.362;2023-05-07T14:19:01;24.10;16.30
6672;DHT22;3372;48.690;12.362;2023-05-07T14:21:27;24.00;15.70
6672;DHT22;3372;48.690;12.362;2023-05-07T14:23:52;23.80;15.90
6672;DHT22;3372;48.690;12.362;2023-05-07T14:26:18;24.00;16.20
6672;DHT22;3372;48.690;12.362;2023-05-07T14:28:44;24.10;16.20
6672;DHT22;3372;48.690;12.362;2023-05-07T14:31:12;24.00;16.40
6672;DHT22;3372;48.690;12.362;2023-05-07T14:33:37;24.10;16.60
6672;DHT22;3372;48.690;12.362;2023-05-07T14:36:03;23.90;16.80
6672;DHT22;3372;48.690;12.362;2023-05-07T14:38:29;24.00;17.30
6672;DHT22;3372;48.690;12.362;2023-05-07T14:40:55;24.10;16.80
6672;DHT22;3372;48.690;12.362;2023-05-07T14:43:22;23.80;15.90
6672;DHT22;3372;48.690;12.362;2023-05-07T14:45:47;23.90;16.90
6672;DHT22;3372;48.690;12.362;2023-05-07T14:48:13;24.00;17.00
6672;DHT22;3372;48.690;12.362;2023-05-07T14:50:41;24.10;18.00
6672;DHT22;3372;48.690;12.362;2023-05-07T14:53:07;24.20;16.60
6672;DHT22;3372;48.690;12.362;2023-05-07T14:55:34;24.20;17.00
6672;DHT22;3372;48.690;12.362;2023-05-07T14:57:59;24.20;17.30
6672;DHT22;3372;48.690;12.362;2023-05-07T15:00:25;24.30;17.40
6672;DHT22;3372;48.690;12.362;2023-05-07T15:02:51;24.10;17.20
6672;DHT22;3372;48.690;12.362;2023-05-07T15:05:17;24.20;18.30
6672;DHT22;3372;48.690;12.362;2023-05-07T15:07:44;24.20;18.30
6672;DHT22;3372;48.690;12.362;2023-05-07T15:10:10;24.10;15.90
6672;DHT22;3372;48.690;12.362;2023-05-07T15:12:35;24.10;17.60
6672;DHT22;3372;48.690;12.362;2023-05-07T15:15:01;24.10;17.80
6672;DHT22;3372;48.690;12.362;2023-05-07T15:17:27;23.90;17.50
6672;DHT22;3372;48.690;12.362;2023-05-07T15:19:53;23.60;17.50
6672;DHT22;3372;48.690;12.362;2023-05-07T15:22:19;23.40;17.00
6672;DHT22;3372;48.690;12.362;2023-05-07T15:24:46;23.30;18.00
6672;DHT22;3372;48.690;12.362;2023-05-07T15:27:12;23.20;17.80
6672;DHT22;3372;48.690;12.362;2023-05-07T15:29:37;23.10;18.10
6672;DHT22;3372;48.690;12.362;2023-05-07T15:32:03;23.00;18.10
6672;DHT22;3372;48.690;12.362;2023-05-07T15:34:28;22.90;18.10
6672;DHT22;3372;48.690;12.362;2023-05-07T15:36:56;22.90;18.00
6672;DHT22;3372;48.690;12.362;2023-05-07T15:39:22;22.90;17.70
6672;DHT22;3372;48.690;12.362;2023-05-07T15:41:48;22.90;18.20
6672;DHT22;3372;48.690;12.362;2023-05-07T15:44:13;22.90;17.70
6672;DHT22;3372;48.690;12.362;2023-05-07T15:46:39;22.80;17.10
6672;DHT22;3372;48.690;12.362;2023-05-07T15:49:04;22.80;18.40
6672;DHT22;3372;48.690;12.362;2023-05-07T15:51:30;22.80;16.90
6672;DHT22;3372;48.690;12.362;2023-05-07T15:53:56;22.70;17.70
6672;DHT22;3372;48.690;12.362;2023-05-07T15:56:22;22.70;17.70
6672;DHT22;3372;48.690;12.362;2023-05-07T15:58:50;22.70;17.70
6672;DHT22;3372;48.690;12.362;2023-05-07T16:01:18;22.70;17.70
6672;DHT22;3372;48.690;12.362;2023-05-07T16:03:43;22.60;17.60
6672;DHT22;3372;48.690;12.362;2023-05-07T16:06:09;22.70;18.10
6672;DHT22;3372;48.690;12.362;2023-05-07T16:08:37;22.70;17.90
6672;DHT22;3372;48.690;12.362;2023-05-07T16:11:03;22.60;18.10
6672;DHT22;3372;48.690;12.362;2023-05-07T16:13:29;22.50;17.90
6672;DHT22;3372;48.690;12.362;2023-05-07T16:15:55;22.50;18.20
6672;DHT22;3372;48.690;12.362;2023-05-07T16:18:24;22.50;18.80
6672;DHT22;3372;48.690;12.362;2023-05-07T16:20:50;22.50;18.60
6672;DHT22;3372;48.690;12.362;2023-05-07T16:23:15;22.40;18.40
6672;DHT22;3372;48.690;12.362;2023-05-07T16:25:41;22.50;18.60
6672;DHT22;3372;48.690;12.362;2023-05-07T16:28:07;22.50;18.60
6672;DHT22;3372;48.690;12.362;2023-05-07T16:30:33;22.40;18.80
6672;DHT22;3372;48.690;12.362;2023-05-07T16:32:58;22.40;19.10
6672;DHT22;3372;48.690;12.362;2023-05-07T16:35:24;22.40;19.70
6672;DHT22;3372;48.690;12.362;2023-05-07T16:37:49;22.40;19.20
6672;DHT22;3372;48.690;12.362;2023-05-07T16:40:15;22.40;19.70
6672;DHT22;3372;48.690;12.362;2023-05-07T16:42:41;22.40;19.00
6672;DHT22;3372;48.690;12.362;2023-05-07T16:45:06;22.30;19.50
6672;DHT22;3372;48.690;12.362;2023-05-07T16:47:33;22.30;19.90
6672;DHT22;3372;48.690;12.362;2023-05-07T16:49:58;22.30;20.50
6672;DHT22;3372;48.690;12.362;2023-05-07T16:52:30;22.30;20.30
6672;DHT22;3372;48.690;12.362;2023-05-07T16:54:55;22.30;20.90